LFBE/EGC METAR and TAF weather

Enter ICAO airport designator
Station Type Date Time Source
LFBE METAR 2019/04/25 02:00 UTC NOAA

LFBE 250200Z AUTO 12004KT 070V150 9999 ///TCU 11/10 Q1001 TEMPO 4000 RA BKN014 BKN060 BECMG 18015G25KT


Station Type Date Time Source
LFBE Decoded METAR 2019/04/25 02:00 UTC NOAA

Bergerac, France (LFBE) 44-49N 000-31E 52M
Apr 24, 2019 - 10:00 PM EDT / 2019.04.25 0200 UTC
Wind: from the ESE (120 degrees) at 5 MPH (4 KT) (direction variable):0
Visibility: greater than 7 mile(s):0
Weather: Towering cumulus clouds observed
Temperature: 51 F (11 C)
Dew Point: 50 F (10 C)
Relative Humidity: 93%
Pressure (altimeter): 29.56 in. Hg (1001 hPa)
ob: LFBE 250200Z AUTO 12004KT 070V150 9999 ///TCU 11/10 Q1001 TEMPO 4000 RA BKN014 BKN060 BECMG 18015G25KT
cycle: 2

Station Type Date Time Source
LFBE TAF 2019/04/24 20:10 UTC NOAA

TAF LFBE 242001Z 2420/2512 CNL

Example: see airport list